Time;durP1;ratioP1;P1;durP2;ratioP2;P2;SDS_P1;SDS_P2;PMS_P1;PMS_P2;Temp;Humidity;BMP_temperature;BMP_pressure;BME280_temperature;BME280_humidity;BME280_pressure;Samples;Min_cycle;Max_cycle;Signal;HPM_P1;HPM_P2
2021/05/03 00:02:25;;;;;;;8.23;6.90;;;11.40;56.20;;;;;;5039430;28;20029;-68
2021/05/03 00:04:51;;;;;;;9.25;7.38;;;11.30;56.40;;;;;;5039365;28;20025;-68
2021/05/03 00:07:17;;;;;;;10.18;7.07;;;11.30;56.50;;;;;;5039688;28;20084;-68
2021/05/03 00:09:43;;;;;;;8.65;6.70;;;11.30;56.70;;;;;;5038999;28;20021;-68
2021/05/03 00:12:09;;;;;;;8.63;7.20;;;11.30;57.20;;;;;;5039619;28;20034;-68
2021/05/03 00:14:35;;;;;;;9.02;7.10;;;11.30;57.30;;;;;;5038337;28;20022;-68
2021/05/03 00:17:01;;;;;;;9.07;6.90;;;11.30;57.30;;;;;;5039745;28;20022;-68
2021/05/03 00:19:27;;;;;;;8.77;6.97;;;11.30;57.30;;;;;;5038808;28;20503;-68
2021/05/03 00:21:53;;;;;;;7.68;6.28;;;11.20;57.30;;;;;;5039819;28;20025;-68
2021/05/03 00:24:19;;;;;;;8.82;6.63;;;11.20;57.50;;;;;;5039176;28;20022;-68
2021/05/03 00:26:44;;;;;;;8.10;6.70;;;11.20;57.80;;;;;;5040005;28;20034;-68
2021/05/03 00:29:10;;;;;;;9.68;7.13;;;11.30;57.80;;;;;;5039395;28;20026;-68
2021/05/03 00:31:36;;;;;;;7.85;6.38;;;11.20;57.80;;;;;;5039369;28;20071;-68
2021/05/03 00:34:03;;;;;;;8.02;6.53;;;11.30;58.00;;;;;;5039063;28;20025;-68
2021/05/03 00:36:29;;;;;;;7.97;6.88;;;11.30;58.00;;;;;;5037317;28;20037;-68
2021/05/03 00:38:55;;;;;;;9.07;6.90;;;11.20;57.80;;;;;;5039134;28;20121;-68
2021/05/03 00:41:20;;;;;;;9.05;7.43;;;11.20;57.80;;;;;;5037909;28;20017;-68
2021/05/03 00:43:46;;;;;;;8.20;6.70;;;11.20;58.10;;;;;;5039243;28;20121;-68
2021/05/03 00:46:17;;;;;;;7.50;6.28;;;11.10;58.10;;;;;;5045243;28;20100;-68
2021/05/03 00:48:43;;;;;;;10.05;7.32;;;11.20;58.40;;;;;;5045150;28;20056;-68
2021/05/03 00:51:09;;;;;;;9.25;7.47;;;11.20;58.10;;;;;;5039110;28;20064;-68
2021/05/03 00:53:34;;;;;;;8.68;7.18;;;11.20;58.30;;;;;;5038949;28;20034;-68
2021/05/03 00:56:01;;;;;;;9.00;6.72;;;11.20;58.50;;;;;;5038753;28;20069;-68
2021/05/03 00:58:27;;;;;;;10.00;7.50;;;11.20;58.70;;;;;;5039182;28;20022;-68
2021/05/03 01:00:52;;;;;;;9.43;7.03;;;11.30;59.00;;;;;;5038476;28;20022;-68
2021/05/03 01:03:18;;;;;;;7.80;6.95;;;11.30;58.90;;;;;;5038815;28;20400;-68
2021/05/03 01:05:44;;;;;;;10.35;7.78;;;11.30;58.90;;;;;;5038510;28;20029;-68
2021/05/03 01:08:10;;;;;;;8.30;6.68;;;11.30;58.90;;;;;;5036256;28;20037;-68
2021/05/03 01:10:36;;;;;;;8.32;6.50;;;11.20;58.70;;;;;;5038195;28;20542;-68
2021/05/03 01:13:02;;;;;;;7.55;6.20;;;11.30;58.90;;;;;;5039888;28;20506;-68
2021/05/03 01:15:27;;;;;;;8.60;7.05;;;11.20;59.10;;;;;;5047780;28;20025;-68
2021/05/03 01:18:04;;;;;;;7.80;6.57;;;11.30;59.10;;;;;;5038584;28;20467;-68
2021/05/03 01:20:35;;;;;;;8.15;6.75;;;11.30;59.30;;;;;;5038025;28;20030;-68
2021/05/03 01:23:02;;;;;;;7.15;6.07;;;11.30;59.30;;;;;;5038385;28;20021;-68
2021/05/03 01:25:31;;;;;;;8.32;6.97;;;11.30;59.30;;;;;;5038190;28;20029;-68
2021/05/03 01:28:02;;;;;;;7.75;6.22;;;11.30;59.00;;;;;;5038309;28;20484;-68
2021/05/03 01:30:31;;;;;;;7.13;6.20;;;11.20;59.10;;;;;;5037717;28;20128;-68
2021/05/03 01:32:58;;;;;;;10.10;7.25;;;11.20;59.20;;;;;;5037990;28;20034;-68
2021/05/03 01:35:25;;;;;;;8.35;7.22;;;11.20;59.10;;;;;;5037784;28;20083;-68
2021/05/03 01:37:56;;;;;;;9.35;6.78;;;11.20;59.30;;;;;;5037985;28;20029;-68
2021/05/03 01:40:26;;;;;;;7.53;6.13;;;11.20;59.20;;;;;;5038184;28;20412;-68
2021/05/03 01:42:52;;;;;;;8.98;7.18;;;11.10;59.20;;;;;;5038225;28;20468;-68
2021/05/03 01:45:27;;;;;;;9.65;7.68;;;11.10;59.30;;;;;;5038317;28;20108;-68
2021/05/03 01:47:54;;;;;;;8.40;7.40;;;11.10;59.20;;;;;;5024867;28;20547;-68
2021/05/03 01:50:22;;;;;;;10.10;7.57;;;11.00;58.80;;;;;;5037365;28;20479;-68
2021/05/03 01:52:51;;;;;;;9.13;7.22;;;10.90;59.00;;;;;;5037526;28;20029;-68
2021/05/03 01:55:19;;;;;;;9.32;7.72;;;10.90;58.90;;;;;;5037719;28;20029;-68
2021/05/03 01:57:45;;;;;;;10.05;7.95;;;10.80;58.90;;;;;;5037999;28;20061;-68
2021/05/03 02:00:12;;;;;;;8.43;7.30;;;10.70;58.80;;;;;;5037640;28;20388;-68
2021/05/03 02:02:38;;;;;;;9.68;7.75;;;10.60;59.00;;;;;;5037770;28;20438;-68
2021/05/03 02:05:06;;;;;;;9.88;8.00;;;10.60;59.00;;;;;;5037708;28;20017;-68
2021/05/03 02:07:31;;;;;;;8.57;7.40;;;10.50;58.90;;;;;;5037604;28;20029;-68
2021/05/03 02:09:57;;;;;;;9.32;7.82;;;10.40;59.00;;;;;;5035935;28;20057;-68
2021/05/03 02:12:23;;;;;;;8.60;7.28;;;10.30;59.10;;;;;;5037763;28;20483;-68
2021/05/03 02:14:49;;;;;;;10.27;7.82;;;10.30;59.30;;;;;;5037310;28;20052;-68
2021/05/03 02:17:14;;;;;;;8.57;7.40;;;10.30;59.30;;;;;;5035890;28;20025;-68
2021/05/03 02:19:40;;;;;;;9.77;7.88;;;10.20;59.40;;;;;;5035779;28;20028;-68
2021/05/03 02:22:06;;;;;;;9.60;7.30;;;10.20;59.50;;;;;;5037328;28;20152;-68
2021/05/03 02:24:32;;;;;;;9.82;8.27;;;10.10;59.50;;;;;;5036212;28;20021;-68
2021/05/03 02:26:57;;;;;;;9.05;7.93;;;10.10;59.70;;;;;;5037273;28;20621;-68
2021/05/03 02:29:23;;;;;;;8.05;6.82;;;10.10;59.70;;;;;;5050654;28;20021;-68
2021/05/03 02:31:49;;;;;;;9.27;8.00;;;10.00;59.70;;;;;;5037486;28;20036;-68
2021/05/03 02:34:15;;;;;;;8.93;7.50;;;10.00;59.60;;;;;;5034719;28;20021;-68
2021/05/03 02:36:41;;;;;;;8.88;7.88;;;9.90;59.60;;;;;;5024986;28;20438;-68
2021/05/03 02:39:07;;;;;;;9.50;7.20;;;9.80;60.10;;;;;;5037023;28;20104;-68
2021/05/03 02:41:33;;;;;;;8.80;7.22;;;9.80;59.70;;;;;;5036869;28;20095;-68
2021/05/03 02:44:00;;;;;;;9.20;7.63;;;9.80;59.80;;;;;;5035873;28;20048;-68
2021/05/03 02:46:29;;;;;;;8.98;7.53;;;9.70;59.80;;;;;;5037135;28;20061;-68
2021/05/03 02:48:55;;;;;;;10.07;7.53;;;9.70;59.80;;;;;;5036564;28;20029;-68
2021/05/03 02:51:21;;;;;;;9.10;7.65;;;9.60;59.90;;;;;;5037051;28;20037;-68
2021/05/03 02:53:47;;;;;;;9.10;7.32;;;9.50;59.80;;;;;;5036847;28;20025;-68
2021/05/03 02:56:13;;;;;;;10.65;8.35;;;9.50;59.90;;;;;;5037264;28;20036;-68
2021/05/03 02:58:39;;;;;;;9.52;8.23;;;9.50;60.00;;;;;;5038647;28;20492;-68
2021/05/03 03:01:04;;;;;;;9.73;7.22;;;9.40;60.00;;;;;;5048063;28;20365;-68
2021/05/03 03:03:30;;;;;;;12.65;9.10;;;9.40;60.00;;;;;;5036576;28;20045;-68
2021/05/03 03:05:57;;;;;;;11.70;8.35;;;9.40;60.00;;;;;;5036910;28;20117;-68
2021/05/03 03:08:23;;;;;;;10.10;7.53;;;9.30;60.20;;;;;;5039421;28;20030;-68
2021/05/03 03:10:49;;;;;;;10.10;8.27;;;9.20;60.30;;;;;;5036447;28;20029;-68
2021/05/03 03:13:14;;;;;;;11.00;8.48;;;9.20;60.40;;;;;;5036794;28;20030;-68
2021/05/03 03:15:40;;;;;;;9.57;8.02;;;9.10;60.50;;;;;;5037105;28;20087;-68
2021/05/03 03:18:06;;;;;;;9.90;8.10;;;9.10;60.80;;;;;;5035969;28;20060;-68
2021/05/03 03:20:32;;;;;;;10.05;7.93;;;9.10;61.00;;;;;;5037009;28;20083;-68
2021/05/03 03:22:58;;;;;;;10.75;8.25;;;9.10;61.00;;;;;;5036522;28;20025;-68
2021/05/03 03:25:25;;;;;;;9.75;8.23;;;9.10;61.00;;;;;;5037077;28;20056;-68
2021/05/03 03:27:51;;;;;;;10.35;8.00;;;9.10;61.10;;;;;;5035162;28;20087;-68
2021/05/03 03:30:17;;;;;;;9.85;7.50;;;9.10;61.20;;;;;;5036969;28;20026;-68
2021/05/03 03:32:44;;;;;;;9.77;8.05;;;9.00;61.10;;;;;;5049912;28;20065;-68
2021/05/03 03:35:15;;;;;;;9.85;8.32;;;9.00;61.20;;;;;;5027670;28;20034;-68
2021/05/03 03:37:42;;;;;;;10.98;9.18;;;9.00;61.30;;;;;;5032748;28;20017;-68
2021/05/03 03:40:09;;;;;;;9.75;8.20;;;8.90;61.20;;;;;;5036699;28;20026;-68
2021/05/03 03:42:35;;;;;;;8.60;7.25;;;8.90;61.40;;;;;;5033079;28;20017;-68
2021/05/03 03:45:01;;;;;;;9.38;7.78;;;8.90;61.40;;;;;;5036723;28;20045;-68
2021/05/03 03:47:27;;;;;;;9.48;7.47;;;8.80;61.30;;;;;;5036322;28;20060;-68
2021/05/03 03:49:53;;;;;;;10.30;8.05;;;8.80;61.30;;;;;;5036428;28;20034;-68
2021/05/03 03:52:19;;;;;;;9.85;8.25;;;8.80;61.40;;;;;;5036918;28;20056;-68
2021/05/03 03:54:45;;;;;;;9.73;7.50;;;8.80;61.40;;;;;;5040333;28;20034;-68
2021/05/03 03:57:11;;;;;;;9.77;8.18;;;8.80;61.30;;;;;;5040201;28;20022;-67
2021/05/03 03:59:41;;;;;;;10.85;8.57;;;8.70;61.20;;;;;;5039809;28;20029;-68
2021/05/03 04:02:07;;;;;;;11.15;8.18;;;8.60;60.90;;;;;;5039629;28;20018;-68
2021/05/03 04:04:35;;;;;;;11.30;9.00;;;8.50;61.20;;;;;;5038674;28;20387;-68
2021/05/03 04:09:50;;;;;;;10.38;8.90;;;8.30;61.30;;;;;;5040198;28;20392;-68
2021/05/03 04:25:58;;;;;;;12.50;8.90;;;8.20;61.80;;;;;;5037478;28;20523;-68
2021/05/03 04:28:24;;;;;;;9.50;8.40;;;8.20;62.00;;;;;;5037585;28;20119;-68
2021/05/03 04:30:50;;;;;;;9.93;8.32;;;8.10;62.10;;;;;;5038314;28;20038;-68
2021/05/03 04:33:16;;;;;;;9.95;8.82;;;8.10;62.30;;;;;;5039282;28;20024;-67
2021/05/03 04:35:41;;;;;;;10.57;8.63;;;8.10;62.30;;;;;;5034031;28;20034;-67
2021/05/03 04:38:07;;;;;;;9.93;8.13;;;8.10;62.00;;;;;;5039225;28;20021;-68
2021/05/03 04:40:33;;;;;;;10.20;8.57;;;8.10;62.00;;;;;;5037921;28;20024;-68
2021/05/03 04:42:59;;;;;;;9.73;7.90;;;8.00;62.00;;;;;;5039090;28;20013;-68
2021/05/03 04:45:24;;;;;;;10.23;8.40;;;8.00;62.30;;;;;;5039342;28;20050;-68
2021/05/03 04:47:50;;;;;;;10.30;8.80;;;8.00;62.10;;;;;;5039003;28;20472;-68
2021/05/03 04:50:16;;;;;;;11.85;8.80;;;8.00;62.10;;;;;;5038793;28;20484;-68
2021/05/03 04:52:42;;;;;;;9.55;7.95;;;8.00;62.10;;;;;;5038827;28;20076;-68
2021/05/03 04:55:09;;;;;;;9.82;7.90;;;7.90;62.00;;;;;;5038250;28;20030;-68
2021/05/03 04:57:35;;;;;;;10.48;8.13;;;7.90;61.90;;;;;;5034739;28;20061;-68
2021/05/03 05:00:01;;;;;;;10.23;8.40;;;7.80;61.80;;;;;;5038376;28;20021;-68
2021/05/03 05:02:27;;;;;;;9.93;8.38;;;7.80;62.10;;;;;;5037737;28;20022;-68
2021/05/03 05:04:53;;;;;;;10.88;7.78;;;7.80;62.10;;;;;;5034183;28;20025;-68
2021/05/03 05:07:20;;;;;;;11.18;8.45;;;7.80;62.10;;;;;;5037164;28;20485;-68
2021/05/03 05:09:46;;;;;;;10.10;8.20;;;7.80;62.10;;;;;;5028689;28;20120;-68
2021/05/03 05:12:12;;;;;;;11.10;8.45;;;7.80;62.10;;;;;;5038176;28;20059;-68
2021/05/03 05:14:38;;;;;;;12.27;8.53;;;7.80;62.10;;;;;;5038603;28;20022;-68
2021/05/03 05:17:04;;;;;;;10.35;8.40;;;7.80;62.00;;;;;;5038597;28;20102;-68
2021/05/03 05:19:30;;;;;;;12.38;9.60;;;7.80;62.30;;;;;;5037436;28;20060;-68
2021/05/03 05:21:55;;;;;;;12.48;9.32;;;7.80;62.20;;;;;;5038357;28;20021;-68
2021/05/03 05:24:21;;;;;;;11.50;9.30;;;7.80;62.30;;;;;;5046464;28;20021;-68
2021/05/03 05:26:47;;;;;;;10.60;9.23;;;7.80;62.50;;;;;;5040791;28;20064;-68
2021/05/03 05:29:13;;;;;;;11.75;9.27;;;7.80;62.40;;;;;;5037843;28;20060;-68
2021/05/03 05:31:38;;;;;;;12.63;10.00;;;7.80;62.60;;;;;;5037568;28;20446;-68
2021/05/03 05:34:04;;;;;;;11.00;8.90;;;7.80;62.50;;;;;;5036394;28;20034;-68
2021/05/03 05:36:31;;;;;;;9.75;7.88;;;7.80;62.40;;;;;;5030932;28;20072;-68
2021/05/03 05:38:57;;;;;;;10.63;8.68;;;7.80;62.40;;;;;;5038252;28;20033;-68
2021/05/03 05:41:22;;;;;;;12.20;8.13;;;7.80;62.30;;;;;;5038027;28;20037;-68
2021/05/03 05:43:49;;;;;;;11.20;8.98;;;7.80;62.60;;;;;;5037895;28;20030;-68
2021/05/03 05:46:18;;;;;;;11.63;9.13;;;7.80;62.50;;;;;;5038067;28;20459;-68
2021/05/03 05:48:45;;;;;;;11.27;8.93;;;7.80;62.80;;;;;;5037898;28;20053;-68
2021/05/03 05:51:11;;;;;;;11.30;8.65;;;7.90;62.90;;;;;;5038233;28;20468;-68
2021/05/03 05:53:36;;;;;;;11.65;8.80;;;7.90;62.70;;;;;;5037086;28;20038;-68
2021/05/03 05:56:02;;;;;;;12.55;8.60;;;7.80;62.50;;;;;;5036715;28;20036;-68
2021/05/03 05:58:31;;;;;;;15.93;9.30;;;7.80;62.90;;;;;;5038049;28;20029;-68
2021/05/03 06:00:57;;;;;;;11.48;9.45;;;7.90;63.00;;;;;;5034968;28;20025;-68
2021/05/03 06:03:23;;;;;;;11.68;8.88;;;7.90;63.00;;;;;;5037460;28;20033;-69
2021/05/03 06:05:49;;;;;;;12.15;9.85;;;7.90;63.30;;;;;;5037998;28;20021;-69
2021/05/03 06:08:14;;;;;;;13.85;10.40;;;7.90;63.30;;;;;;5037530;28;20028;-69
2021/05/03 06:10:40;;;;;;;14.88;10.60;;;7.90;63.60;;;;;;5037886;28;20053;-69
2021/05/03 06:13:07;;;;;;;12.63;9.52;;;8.00;63.80;;;;;;5037617;28;20022;-69
2021/05/03 06:15:33;;;;;;;11.43;9.20;;;8.00;63.70;;;;;;5036039;28;20392;-69
2021/05/03 06:17:59;;;;;;;12.27;9.00;;;8.00;64.00;;;;;;5037299;28;20025;-69
2021/05/03 06:20:25;;;;;;;11.52;8.93;;;8.20;64.10;;;;;;5036351;28;20018;-69
2021/05/03 06:23:05;;;;;;;13.30;10.20;;;8.20;64.20;;;;;;5037433;28;20018;-69
2021/05/03 06:25:32;;;;;;;13.05;10.18;;;8.30;64.10;;;;;;5037565;28;20384;-69
2021/05/03 06:27:58;;;;;;;13.77;10.15;;;8.30;63.90;;;;;;5037775;28;20047;-69
2021/05/03 06:30:25;;;;;;;15.95;12.50;;;8.40;64.10;;;;;;5037437;28;20479;-69
2021/05/03 06:32:52;;;;;;;14.48;11.13;;;8.40;64.00;;;;;;5036280;28;20034;-69
2021/05/03 06:35:18;;;;;;;13.32;10.52;;;8.40;64.10;;;;;;5037039;28;20030;-69
2021/05/03 06:37:44;;;;;;;14.75;11.20;;;8.50;64.40;;;;;;5037453;28;20044;-69
2021/05/03 06:40:11;;;;;;;12.38;9.75;;;8.50;64.80;;;;;;5037132;28;20022;-69
2021/05/03 06:42:37;;;;;;;12.63;10.80;;;8.60;65.00;;;;;;5037484;28;20144;-70
2021/05/03 06:45:04;;;;;;;15.45;11.43;;;8.80;64.90;;;;;;5037249;28;20535;-70
2021/05/03 06:47:29;;;;;;;13.75;10.80;;;8.80;64.70;;;;;;5037354;28;20392;-70
2021/05/03 06:49:56;;;;;;;12.90;10.68;;;8.90;64.80;;;;;;5035614;28;20030;-70
2021/05/03 06:52:22;;;;;;;15.10;10.85;;;9.00;64.90;;;;;;5045946;28;20025;-70
2021/05/03 06:54:48;;;;;;;12.73;10.35;;;9.10;64.90;;;;;;5041725;28;20113;-70
2021/05/03 06:57:15;;;;;;;13.95;10.45;;;9.20;65.60;;;;;;5037355;28;20049;-70
2021/05/03 06:59:41;;;;;;;11.25;9.98;;;9.40;66.30;;;;;;5036679;28;20533;-70
2021/05/03 07:02:09;;;;;;;13.40;10.90;;;9.70;66.40;;;;;;5024662;28;20029;-70
2021/05/03 07:04:35;;;;;;;16.20;10.77;;;9.90;66.50;;;;;;5037012;28;20108;-70
2021/05/03 07:07:01;;;;;;;12.13;9.55;;;10.10;66.20;;;;;;5037160;28;20137;-70
2021/05/03 07:09:27;;;;;;;14.75;10.80;;;10.30;66.60;;;;;;5037168;28;20460;-70
2021/05/03 07:11:53;;;;;;;13.90;10.13;;;10.60;66.80;;;;;;5037097;28;20114;-71
2021/05/03 07:14:19;;;;;;;11.77;9.57;;;11.00;67.70;;;;;;5035714;28;20068;-70
2021/05/03 07:16:45;;;;;;;13.15;10.25;;;11.50;68.20;;;;;;5037005;28;20017;-70
2021/05/03 07:19:10;;;;;;;12.30;10.02;;;11.90;68.20;;;;;;5036842;28;20384;-73
2021/05/03 07:21:37;;;;;;;14.25;9.95;;;12.30;67.70;;;;;;5036096;28;20033;-71
2021/05/03 07:24:04;;;;;;;14.57;9.63;;;12.80;67.70;;;;;;5036897;28;20021;-65
2021/05/03 07:26:30;;;;;;;12.93;9.88;;;13.20;67.30;;;;;;5036953;28;20025;-66
2021/05/03 07:28:56;;;;;;;13.48;11.25;;;13.60;66.90;;;;;;5039936;28;20022;-68
2021/05/03 07:31:22;;;;;;;14.73;10.98;;;13.90;66.20;;;;;;5049563;28;20108;-69
2021/05/03 07:33:48;;;;;;;12.75;10.63;;;14.20;65.40;;;;;;5044959;28;20025;-68
2021/05/03 07:36:14;;;;;;;12.85;10.65;;;14.60;64.70;;;;;;5032440;28;20380;-68
2021/05/03 07:38:39;;;;;;;18.67;12.85;;;14.80;64.00;;;;;;5040466;28;20022;-70
2021/05/03 07:41:06;;;;;;;15.88;11.65;;;15.10;63.70;;;;;;5040589;28;20021;-69
2021/05/03 07:43:33;;;;;;;21.15;11.23;;;15.40;63.50;;;;;;5040700;28;20025;-68
2021/05/03 07:45:58;;;;;;;16.83;11.52;;;15.70;62.50;;;;;;5040421;28;20076;-69
2021/05/03 07:48:24;;;;;;;16.80;13.27;;;16.00;61.70;;;;;;5040007;28;20040;-70
2021/05/03 07:50:50;;;;;;;16.42;13.13;;;16.20;61.40;;;;;;5040536;28;20057;-70
2021/05/03 07:53:16;;;;;;;18.67;12.95;;;16.60;61.10;;;;;;5040071;28;20025;-68
2021/05/03 07:55:41;;;;;;;16.80;13.23;;;16.90;60.40;;;;;;5040081;28;20056;-70
2021/05/03 07:58:07;;;;;;;15.23;11.02;;;17.20;59.80;;;;;;5039998;28;20337;-69
2021/05/03 08:00:33;;;;;;;13.27;10.98;;;17.50;59.70;;;;;;5032301;28;20088;-71
2021/05/03 08:02:59;;;;;;;14.13;11.27;;;17.80;59.20;;;;;;5034165;28;20384;-68
2021/05/03 08:05:25;;;;;;;21.67;16.92;;;18.10;58.40;;;;;;5040071;28;20025;-69
2021/05/03 08:07:51;;;;;;;17.55;15.68;;;18.30;58.10;;;;;;5039866;28;20025;-69
2021/05/03 08:10:18;;;;;;;15.65;12.25;;;18.70;58.30;;;;;;5038609;28;20083;-70
2021/05/03 08:12:43;;;;;;;15.68;12.02;;;19.00;57.40;;;;;;5040194;28;20491;-70
2021/05/03 08:15:14;;;;;;;12.13;9.95;;;19.30;56.70;;;;;;5040016;28;20057;-71
2021/05/03 08:17:44;;;;;;;11.85;9.75;;;19.60;56.10;;;;;;5039630;28;20045;-74
2021/05/03 08:20:15;;;;;;;10.77;8.88;;;19.80;55.40;;;;;;5039760;28;20460;-76
2021/05/03 08:22:41;;;;;;;14.13;11.30;;;20.00;54.80;;;;;;5039538;28;20041;-72
2021/05/03 08:25:08;;;;;;;12.70;9.55;;;20.20;53.80;;;;;;5039761;28;20490;-72
2021/05/03 08:27:35;;;;;;;12.30;8.32;;;20.50;54.10;;;;;;5039624;28;20085;-66
2021/05/03 08:30:02;;;;;;;11.43;8.60;;;20.80;53.40;;;;;;5039821;28;20029;-64
2021/05/03 08:32:28;;;;;;;12.95;8.48;;;20.60;50.60;;;;;;5039544;28;20022;-63
2021/05/03 08:34:53;;;;;;;7.80;6.75;;;20.40;50.10;;;;;;5039301;28;20113;-64
2021/05/03 08:37:19;;;;;;;9.68;7.65;;;20.30;49.50;;;;;;5038937;28;20022;-63
2021/05/03 08:39:45;;;;;;;9.07;6.93;;;20.30;50.50;;;;;;5039206;28;20026;-64
2021/05/03 08:42:13;;;;;;;6.93;6.22;;;20.40;50.40;;;;;;5039242;28;20037;-63
2021/05/03 08:44:39;;;;;;;7.30;4.57;;;20.50;50.00;;;;;;5039226;28;20526;-64
2021/05/03 08:47:05;;;;;;;5.25;4.28;;;20.50;50.00;;;;;;5039190;28;20021;-63
2021/05/03 08:52:45;;;;;;;8.13;4.93;;;20.50;47.90;;;;;;5039341;28;20134;-63
2021/05/03 08:54:50;;;;;;;6.88;4.75;;;20.50;47.90;;;;;;5038517;28;20045;-63
2021/05/03 08:57:17;;;;;;;6.68;4.15;;;20.50;46.70;;;;;;5039428;28;20033;-64
2021/05/03 08:59:43;;;;;;;8.45;5.03;;;20.40;47.00;;;;;;5038295;28;20013;-63
2021/05/03 09:02:12;;;;;;;8.52;4.40;;;20.50;44.40;;;;;;5026651;28;20021;-64
2021/05/03 09:04:38;;;;;;;6.47;3.85;;;20.80;39.80;;;;;;5038906;28;20029;-65
2021/05/03 09:07:13;;;;;;;23.75;17.73;;;20.60;42.80;;;;;;5039049;28;20369;-64
2021/05/03 09:09:44;;;;;;;8.48;5.28;;;21.00;44.60;;;;;;5038793;28;20030;-64
2021/05/03 09:12:12;;;;;;;12.65;6.28;;;21.50;44.00;;;;;;5038883;28;20104;-64
2021/05/03 09:15:04;;;;;;;17.63;5.82;;;21.70;41.80;;;;;;5038602;28;20112;-63
2021/05/03 09:17:36;;;;;;;12.30;5.32;;;22.00;43.00;;;;;;5036617;28;20068;-64
2021/05/03 09:20:17;;;;;;;7.68;4.20;;;22.30;38.30;;;;;;5038592;28;20057;-65
2021/05/03 09:23:00;;;;;;;21.02;4.90;;;22.00;40.30;;;;;;5038481;28;20013;-63
2021/05/03 09:26:00;;;;;;;19.08;10.40;;;22.20;41.70;;;;;;5038599;28;20025;-64
2021/05/03 09:28:30;;;;;;;18.08;13.98;;;22.20;41.30;;;;;;5030001;28;20032;-64
2021/05/03 09:30:56;;;;;;;5.72;3.92;;;22.50;40.10;;;;;;5038043;28;20439;-71
2021/05/03 09:33:41;;;;;;;5.90;3.90;;;22.80;39.40;;;;;;5037491;28;20080;-65
2021/05/03 09:36:13;;;;;;;7.57;4.18;;;22.90;39.60;;;;;;5035585;28;20040;-67
2021/05/03 09:38:39;;;;;;;;;;;23.10;37.90;;;;;;5038516;28;20079;-66
2021/05/03 09:41:19;;;;;;;6.03;3.90;;;23.20;39.30;;;;;;5038127;28;19909;-66
2021/05/03 09:43:46;;;;;;;4.78;3.03;;;23.60;37.30;;;;;;5036775;28;20082;-65
2021/05/03 09:46:31;;;;;;;6.50;3.80;;;23.80;35.90;;;;;;5038038;28;20056;-65
2021/05/03 09:49:00;;;;;;;10.27;4.72;;;23.80;36.30;;;;;;5025869;28;20041;-65
2021/05/03 09:51:35;;;;;;;7.03;3.35;;;24.10;36.20;;;;;;5037344;28;20021;-66
2021/05/03 09:54:16;;;;;;;5.68;3.40;;;24.20;34.80;;;;;;5038065;28;20030;-66
2021/05/03 09:57:06;;;;;;;4.50;2.20;;;24.50;36.10;;;;;;5037499;28;20048;-66
2021/05/03 09:59:45;;;;;;;5.07;2.80;;;24.40;34.80;;;;;;5037719;28;20033;-66
2021/05/03 10:02:21;;;;;;;4.60;3.10;;;24.40;34.30;;;;;;5025669;28;20017;-65
2021/05/03 10:05:12;;;;;;;18.58;14.23;;;24.50;36.20;;;;;;5036158;28;20549;-65
2021/05/03 10:07:39;;;;;;;6.68;4.22;;;24.70;35.30;;;;;;5037764;28;20025;-66
2021/05/03 10:10:19;;;;;;;5.78;3.25;;;24.70;33.40;;;;;;5037619;28;20068;-64
2021/05/03 10:12:45;;;;;;;10.05;4.15;;;24.80;34.10;;;;;;5037643;28;20536;-65
2021/05/03 10:15:14;;;;;;;5.43;4.30;;;24.40;30.00;;;;;;5036269;28;20392;-65
2021/05/03 10:17:41;;;;;;;6.55;4.05;;;23.60;31.70;;;;;;5037329;28;20490;-65
2021/05/03 10:20:10;;;;;;;6.40;3.75;;;24.30;35.20;;;;;;5036605;28;20026;-65
2021/05/03 10:22:36;;;;;;;5.43;3.45;;;25.00;30.20;;;;;;5037284;28;20100;-65
2021/05/03 10:25:05;;;;;;;5.97;3.53;;;25.30;31.40;;;;;;5037638;28;20116;-65
2021/05/03 10:27:40;;;;;;;6.28;3.65;;;25.00;32.10;;;;;;5037439;28;20021;-65
2021/05/03 10:30:08;;;;;;;5.68;3.03;;;25.10;32.40;;;;;;5037473;28;20022;-65
2021/05/03 10:32:37;;;;;;;4.47;3.00;;;25.50;33.70;;;;;;5037621;28;20013;-65
2021/05/03 10:35:05;;;;;;;4.40;3.00;;;26.00;33.90;;;;;;5037335;28;20096;-65
2021/05/03 10:37:34;;;;;;;5.97;3.33;;;26.00;29.10;;;;;;5037353;28;20056;-65
2021/05/03 10:40:03;;;;;;;6.07;3.17;;;25.40;29.10;;;;;;5037389;28;20473;-65
2021/05/03 10:42:29;;;;;;;10.10;3.65;;;25.50;31.20;;;;;;5037168;28;20477;-65
2021/05/03 10:45:17;;;;;;;9.77;3.30;;;26.30;33.40;;;;;;5037339;28;20049;-65
2021/05/03 10:47:55;;;;;;;5.97;3.92;;;25.50;28.00;;;;;;5036961;28;20449;-65
2021/05/03 10:50:41;;;;;;;8.30;3.85;;;24.90;29.30;;;;;;5037043;28;20028;-65
2021/05/03 10:53:22;;;;;;;8.38;3.97;;;25.70;33.00;;;;;;5036957;28;20044;-65
2021/05/03 10:55:55;;;;;;;7.55;3.30;;;25.70;30.10;;;;;;5037167;28;20029;-65
2021/05/03 10:58:22;;;;;;;5.25;3.40;;;26.60;31.20;;;;;;5037272;28;20037;-65
2021/05/03 11:01:11;;;;;;;5.97;2.97;;;27.10;31.50;;;;;;5027586;28;20026;-65
2021/05/03 11:04:06;;;;;;;12.65;4.15;;;26.10;29.40;;;;;;5040575;28;20018;-64
2021/05/03 11:06:44;;;;;;;15.05;4.25;;;24.80;33.00;;;;;;5041043;28;20021;-65
2021/05/03 11:12:01;;;;;;;11.27;3.90;;;27.40;30.90;;;;;;5029967;28;20040;-65
2021/05/03 11:14:31;;;;;;;5.05;3.13;;;27.80;29.20;;;;;;5041140;28;20025;-64
2021/05/03 11:17:04;;;;;;;7.15;3.42;;;26.20;27.30;;;;;;5040998;28;20022;-64
2021/05/03 11:22:01;;;;;;;27.58;6.28;;;24.80;33.40;;;;;;5041062;28;20049;-65
2021/05/03 11:24:35;;;;;;;75.68;9.88;;;24.80;29.20;;;;;;5040853;28;20032;-64
2021/05/03 11:27:12;;;;;;;13.32;4.05;;;24.60;32.10;;;;;;5040991;28;20025;-65
2021/05/03 11:30:00;;;;;;;5.40;3.05;;;25.40;32.10;;;;;;5028096;28;20033;-64
2021/05/03 11:32:38;;;;;;;20.08;5.18;;;26.50;31.80;;;;;;5040691;28;20022;-63
2021/05/03 11:35:41;;;;;;;21.88;8.88;;;26.30;29.50;;;;;;5033206;28;20033;-63
2021/05/03 11:46:26;;;;;;;7.63;3.47;;;25.40;28.20;;;;;;5040381;28;20052;-66
2021/05/03 11:48:56;;;;;;;8.77;3.78;;;24.50;27.70;;;;;;5040267;28;20032;-69
2021/05/03 11:51:22;;;;;;;6.07;3.17;;;23.80;28.80;;;;;;5040456;28;20028;-71
2021/05/03 11:53:49;;;;;;;4.75;2.97;;;24.00;29.80;;;;;;5040199;28;20032;-72
2021/05/03 11:56:30;;;;;;;4.60;2.55;;;24.00;30.40;;;;;;5038804;28;20120;-74
2021/05/03 11:59:00;;;;;;;6.32;2.65;;;24.00;29.90;;;;;;5047807;28;20104;-74
2021/05/03 12:01:28;;;;;;;4.63;2.83;;;23.70;29.90;;;;;;5032229;28;20444;-73
2021/05/03 12:03:58;;;;;;;4.78;2.50;;;23.50;30.00;;;;;;5051427;28;20116;-73
2021/05/03 12:06:38;;;;;;;4.65;2.42;;;23.20;30.00;;;;;;5039989;28;20029;-73
2021/05/03 12:09:13;;;;;;;6.47;2.78;;;23.20;31.50;;;;;;5040184;28;20032;-74
2021/05/03 12:11:52;;;;;;;10.55;3.92;;;23.00;30.70;;;;;;5039763;28;20029;-75
2021/05/03 12:14:18;;;;;;;6.65;3.60;;;22.60;30.30;;;;;;5039067;28;20094;-72
2021/05/03 12:16:44;;;;;;;6.50;3.00;;;22.30;30.90;;;;;;5039708;28;20021;-72
2021/05/03 12:19:19;;;;;;;7.20;3.17;;;21.90;30.60;;;;;;5039597;28;20469;-73
2021/05/03 12:21:45;;;;;;;11.20;7.72;;;21.60;31.90;;;;;;5038384;28;20089;-72
2021/05/03 12:24:20;;;;;;;9.73;7.35;;;21.40;32.20;;;;;;5053080;28;20211;-72
2021/05/03 12:26:57;;;;;;;7.95;3.22;;;21.10;32.40;;;;;;5039797;28;20388;-72
2021/05/03 12:29:24;;;;;;;7.78;3.25;;;20.80;32.70;;;;;;5039555;28;20518;-72
2021/05/03 12:31:51;;;;;;;10.85;3.10;;;20.60;33.70;;;;;;5039759;28;20033;-72
2021/05/03 12:34:24;;;;;;;9.85;3.67;;;20.60;34.20;;;;;;5038032;28;20017;-72
2021/05/03 12:37:19;;;;;;;8.60;2.90;;;20.70;34.80;;;;;;5033529;28;20037;-72
2021/05/03 12:40:07;;;;;;;6.10;2.53;;;20.60;34.30;;;;;;5039214;28;20451;-72
2021/05/03 12:42:35;;;;;;;5.55;2.70;;;20.50;34.40;;;;;;5037933;28;20526;-74
2021/05/03 12:45:12;;;;;;;9.05;2.63;;;20.30;34.20;;;;;;5039150;28;20080;-73
2021/05/03 12:50:32;;;;;;;5.35;2.83;;;20.00;35.30;;;;;;5039119;28;20044;-72
2021/05/03 12:53:19;;;;;;;7.30;2.80;;;19.90;35.40;;;;;;5038947;28;20052;-72
2021/05/03 13:01:09;;;;;;;7.68;2.58;;;20.10;36.50;;;;;;5028288;28;20415;-76
2021/05/03 13:04:23;;;;;;;4.95;2.95;;;19.80;35.30;;;;;;5036970;28;20057;-76
2021/05/03 13:29:13;;;;;;;13.07;3.55;;;19.60;37.00;;;;;;5038501;28;20028;-76
2021/05/03 13:31:41;;;;;;;7.15;2.42;;;19.80;37.50;;;;;;5038463;28;20053;-76
2021/05/03 13:34:10;;;;;;;4.75;2.70;;;19.70;36.60;;;;;;5038148;28;20022;-76
2021/05/03 13:36:40;;;;;;;5.45;2.50;;;19.20;35.90;;;;;;5028914;28;20031;-76
2021/05/03 13:39:08;;;;;;;6.80;2.65;;;19.00;37.00;;;;;;5038299;28;20396;-76
2021/05/03 13:41:42;;;;;;;5.57;2.28;;;18.90;37.30;;;;;;5038277;28;20021;-76
2021/05/03 13:44:09;;;;;;;4.93;2.28;;;18.90;36.90;;;;;;5025735;28;20395;-76
2021/05/03 13:46:35;;;;;;;4.97;2.10;;;18.80;37.10;;;;;;5038038;28;20045;-76
2021/05/03 13:49:03;;;;;;;4.38;2.28;;;18.80;38.00;;;;;;5037906;28;20018;-76
2021/05/03 13:51:29;;;;;;;6.07;2.50;;;18.90;37.70;;;;;;5038110;28;20112;-76
2021/05/03 13:53:55;;;;;;;17.48;5.22;;;19.00;37.80;;;;;;5038089;28;20029;-76
2021/05/03 13:56:22;;;;;;;9.45;3.03;;;19.00;37.20;;;;;;5037949;28;20026;-76
2021/05/03 13:58:48;;;;;;;5.03;1.83;;;19.00;36.90;;;;;;5038042;28;20021;-76